Terminal Aerodrome Forecast
Issued by NWS

Home | Current Version | Previous Version | Text Only | Print | Product List | Glossary On
Versions: 1 2 3 4 5 6 7 8 9 10 11 12 13 14 15
000
FTUS46 KPDT 052320
TAFPSC
TAF
KPSC 052320Z 0600/0624 35007KT P6SM VCSH SCT050 BKN100
      TEMPO 0601/0604 -SHRA BKN050 OVC080
     FM060500 33008KT P6SM SCT060 OVC100
     FM061200 VRB05KT P6SM SCT100 BKN200
     FM062000 35007KT P6SM SCT200=

USA.gov is the U.S. government's official web portal to all federal, state and local government web resources and services.